TimeCDT,TemperatureF,Dew PointF,Humidity,Sea Level PressureIn,VisibilityMPH,Wind Direction,Wind SpeedMPH,Gust SpeedMPH,PrecipitationIn,Events,Conditions,WindDirDegrees,DateUTC
12:53 AM,60.1,57.9,93,30.00,10.0,Calm,Calm,-,N/A,,Clear,0,2013-05-08 05:53:00
1:53 AM,60.1,57.0,90,29.99,10.0,West,4.6,-,N/A,,Clear,280,2013-05-08 06:53:00
2:53 AM,59.0,55.9,90,29.99,4.0,Calm,Calm,-,N/A,,Clear,0,2013-05-08 07:53:00
3:16 AM,57.2,55.4,94,30.00,2.5,Calm,Calm,-,N/A,,Clear,0,2013-05-08 08:16:00
3:24 AM,57.2,55.4,94,30.00,1.2,Calm,Calm,-,N/A,,Clear,0,2013-05-08 08:24:00
3:30 AM,57.2,55.4,94,30.00,3.0,Calm,Calm,-,N/A,,Clear,0,2013-05-08 08:30:00
3:53 AM,57.0,55.0,93,30.00,3.0,Calm,Calm,-,N/A,,Clear,0,2013-05-08 08:53:00
3:56 AM,57.2,55.4,94,30.00,1.8,Calm,Calm,-,N/A,,Clear,0,2013-05-08 08:56:00
4:11 AM,55.4,53.6,94,30.00,3.0,Calm,Calm,-,N/A,,Clear,0,2013-05-08 09:11:00
4:53 AM,55.9,53.1,90,30.00,2.0,Calm,Calm,-,N/A,,Clear,0,2013-05-08 09:53:00
5:00 AM,55.4,53.6,94,30.01,1.5,Calm,Calm,-,N/A,,Clear,0,2013-05-08 10:00:00
5:04 AM,55.4,53.6,94,30.01,3.0,Calm,Calm,-,N/A,,Clear,0,2013-05-08 10:04:00
5:11 AM,55.4,53.6,94,30.01,2.5,Calm,Calm,-,N/A,,Clear,0,2013-05-08 10:11:00
5:21 AM,55.4,53.6,94,30.01,6.0,Calm,Calm,-,N/A,,Clear,0,2013-05-08 10:21:00
5:53 AM,55.0,53.1,93,30.01,10.0,Calm,Calm,-,N/A,,Clear,0,2013-05-08 10:53:00
6:53 AM,55.9,54.0,93,30.03,10.0,Calm,Calm,-,N/A,,Clear,0,2013-05-08 11:53:00
7:53 AM,62.1,57.0,84,30.04,10.0,Calm,Calm,-,N/A,,Clear,0,2013-05-08 12:53:00
8:53 AM,68.0,60.1,76,30.05,10.0,Calm,Calm,-,N/A,,Clear,0,2013-05-08 13:53:00
9:53 AM,71.1,61.0,70,30.05,10.0,Calm,Calm,-,N/A,,Clear,0,2013-05-08 14:53:00
10:53 AM,73.9,61.0,64,30.06,10.0,Calm,Calm,-,N/A,,Clear,0,2013-05-08 15:53:00
11:53 AM,77.0,60.1,56,30.05,10.0,Calm,Calm,-,N/A,,Clear,0,2013-05-08 16:53:00
12:53 PM,78.1,60.1,54,30.03,10.0,SSE,6.9,-,N/A,,Clear,160,2013-05-08 17:53:00
1:53 PM,79.0,57.9,48,30.02,10.0,South,11.5,-,N/A,,Clear,190,2013-05-08 18:53:00
2:53 PM,81.0,59.0,47,30.01,10.0,SSW,8.1,-,N/A,,Partly Cloudy,200,2013-05-08 19:53:00
3:48 PM,78.8,59.0,51,30.01,10.0,SSW,6.9,-,N/A,Thunderstorm,Mostly Cloudy,210,2013-05-08 20:48:00
3:53 PM,78.1,59.0,52,30.00,10.0,SSW,8.1,-,N/A,Thunderstorm,Overcast,200,2013-05-08 20:53:00
4:15 PM,73.4,60.8,65,30.01,8.0,SSW,8.1,-,0.00,Rain,Light Rain,200,2013-05-08 21:15:00
4:44 PM,75.2,59.0,57,30.00,10.0,SW,6.9,-,0.00,Thunderstorm,Partly Cloudy,230,2013-05-08 21:44:00
4:53 PM,75.9,60.1,58,29.99,10.0,South,5.8,-,0.00,,Partly Cloudy,190,2013-05-08 21:53:00
5:53 PM,73.0,59.0,61,29.99,10.0,SW,6.9,-,0.00,,Overcast,220,2013-05-08 22:53:00
6:01 PM,73.4,57.2,57,29.99,10.0,SW,5.8,-,N/A,Thunderstorm,Overcast,220,2013-05-08 23:01:00
6:16 PM,71.6,59.0,64,29.98,10.0,SW,4.6,-,0.00,Rain,Light Rain,220,2013-05-08 23:16:00
6:53 PM,73.0,63.0,71,29.97,10.0,SSE,4.6,-,0.00,,Overcast,160,2013-05-08 23:53:00
7:53 PM,73.9,61.0,64,29.99,10.0,Calm,Calm,-,N/A,,Scattered Clouds,0,2013-05-09 00:53:00
8:53 PM,69.1,63.0,81,29.99,10.0,Calm,Calm,-,N/A,,Scattered Clouds,0,2013-05-09 01:53:00
9:53 PM,69.1,64.0,84,29.99,10.0,Calm,Calm,-,N/A,,Partly Cloudy,0,2013-05-09 02:53:00
10:53 PM,66.0,63.0,90,29.98,9.0,Calm,Calm,-,N/A,,Clear,0,2013-05-09 03:53:00
11:53 PM,64.9,62.1,90,29.98,8.0,Calm,Calm,-,N/A,,Partly Cloudy,0,2013-05-09 04:53:00